Union, Washington
Current Conditions -  °F | °C
As of 1:53 AM on Sunday 25 Jan 2015 (Local Time) from KSHN Reporting Station
Overcast Overcast  
Wind Chill: 53°   Ceiling: 1800
Heat Index: 53°   Visibility: 10mi
Dew Point: 52°   Wind: 6mph
Humidity: 96%   Direction: 220°SW
Pressure: 30.19"   Gusts: NA
Location:  47.35°N, 123.1°W
Report Text: KSHN 250953Z AUTO 22005KT 10SM OVC018 12/11 A3019 RMK AO2 SLP224 T01170111
Loading
Personal Weather Stations






























Interactive Weather Map New forecast layout! Learn more

10-Day Weather Forecast

Advertisements
Track Severe Weather on mobile